Time;durP1;ratioP1;P1;durP2;ratioP2;P2;SDS_P1;SDS_P2;PMS_P1;PMS_P2;Temp;Humidity;BMP_temperature;BMP_pressure;BME280_temperature;BME280_humidity;BME280_pressure;Samples;Min_cycle;Max_cycle;Signal;HPM_P1;HPM_P2
2023/03/18 00:02:19;;;;;;;0.40;0.40;;;12.30;99.90;;;;;;6218122;23;20015;-75
2023/03/18 00:04:45;;;;;;;0.40;0.40;;;12.20;99.90;;;;;;6218220;23;20009;-74
2023/03/18 00:07:11;;;;;;;0.40;0.40;;;12.20;99.90;;;;;;6216280;23;20017;-75
2023/03/18 00:09:36;;;;;;;0.40;0.40;;;12.20;99.90;;;;;;6218179;23;20319;-74
2023/03/18 00:12:03;;;;;;;0.30;0.30;;;12.20;99.90;;;;;;6218177;23;20087;-74
2023/03/18 00:14:30;;;;;;;0.30;0.30;;;12.10;99.90;;;;;;6217664;23;20067;-74
2023/03/18 00:16:56;;;;;;;0.30;0.30;;;12.20;99.90;;;;;;6218071;23;20334;-74
2023/03/18 00:19:23;;;;;;;0.40;0.40;;;12.10;99.90;;;;;;6218087;23;20078;-75
2023/03/18 00:21:49;;;;;;;0.30;0.30;;;12.10;99.90;;;;;;6217735;23;20437;-74
2023/03/18 00:24:15;;;;;;;0.43;0.40;;;12.10;99.90;;;;;;6218137;23;20012;-74
2023/03/18 00:26:42;;;;;;;0.40;0.40;;;12.10;99.90;;;;;;6218092;23;20422;-74
2023/03/18 00:29:09;;;;;;;0.40;0.30;;;12.10;99.90;;;;;;6217637;23;20502;-74
2023/03/18 00:31:35;;;;;;;0.35;0.35;;;12.10;99.90;;;;;;6218517;23;20012;-75
2023/03/18 00:34:01;;;;;;;0.40;0.40;;;12.10;99.90;;;;;;6217492;23;20009;-74
2023/03/18 00:36:27;;;;;;;0.35;0.30;;;12.10;99.90;;;;;;6215930;23;20013;-75
2023/03/18 00:38:58;;;;;;;0.30;0.30;;;12.10;99.90;;;;;;6216035;23;20028;-74
2023/03/18 00:41:29;;;;;;;0.30;0.30;;;12.10;99.90;;;;;;6218457;23;20083;-74
2023/03/18 00:43:54;;;;;;;0.60;0.60;;;12.00;99.90;;;;;;6216949;23;20306;-75
2023/03/18 00:46:24;;;;;;;0.50;0.50;;;12.00;99.90;;;;;;6217464;23;20009;-74
2023/03/18 00:48:51;;;;;;;0.40;0.40;;;12.00;99.90;;;;;;6217849;23;20059;-74
2023/03/18 00:51:19;;;;;;;0.40;0.40;;;12.00;99.90;;;;;;6217808;23;20024;-75
2023/03/18 00:53:51;;;;;;;0.30;0.30;;;12.00;99.90;;;;;;6218042;23;20051;-74
2023/03/18 00:56:20;;;;;;;0.40;0.40;;;12.00;99.90;;;;;;6217702;23;20017;-74
2023/03/18 00:58:47;;;;;;;0.30;0.30;;;12.10;99.90;;;;;;6217344;23;20016;-74
2023/03/18 01:01:14;;;;;;;0.30;0.30;;;12.10;99.90;;;;;;6215530;23;20056;-74
2023/03/18 01:03:41;;;;;;;0.40;0.40;;;12.00;99.90;;;;;;6217585;23;20005;-74
2023/03/18 01:06:09;;;;;;;0.40;0.40;;;12.00;99.90;;;;;;6217565;23;20082;-74
2023/03/18 01:08:35;;;;;;;0.45;0.45;;;12.00;99.90;;;;;;6215796;23;20519;-74
2023/03/18 01:11:01;;;;;;;0.50;0.50;;;11.90;99.90;;;;;;6217262;23;20015;-74
2023/03/18 01:13:27;;;;;;;0.50;0.50;;;11.80;99.90;;;;;;6217444;23;20015;-74
2023/03/18 01:15:53;;;;;;;0.32;0.32;;;11.90;99.90;;;;;;6217378;23;20008;-74
2023/03/18 01:18:19;;;;;;;0.50;0.50;;;11.90;99.90;;;;;;6217406;23;20019;-74
2023/03/18 01:20:46;;;;;;;0.40;0.40;;;11.80;99.90;;;;;;6217465;23;20031;-74
2023/03/18 01:23:12;;;;;;;0.55;0.55;;;11.80;99.90;;;;;;6217643;23;20012;-74
2023/03/18 01:25:38;;;;;;;0.50;0.50;;;11.70;99.90;;;;;;6217446;23;20012;-75
2023/03/18 01:28:05;;;;;;;0.30;0.30;;;11.70;99.90;;;;;;6216968;23;20493;-74
2023/03/18 01:30:30;;;;;;;0.52;0.52;;;11.70;99.90;;;;;;6240781;23;20468;-75
2023/03/18 01:32:56;;;;;;;0.50;0.50;;;11.60;99.90;;;;;;6215574;23;20016;-74
2023/03/18 01:35:24;;;;;;;0.50;0.45;;;11.60;99.90;;;;;;6215334;23;20020;-74
2023/03/18 01:37:50;;;;;;;0.57;0.57;;;11.60;99.90;;;;;;6217344;23;20012;-74
2023/03/18 01:40:16;;;;;;;0.65;0.32;;;11.50;99.90;;;;;;6215507;23;20024;-74
2023/03/18 01:42:46;;;;;;;0.40;0.40;;;11.50;99.90;;;;;;6241287;23;20039;-74
2023/03/18 01:45:23;;;;;;;0.40;0.40;;;11.50;99.90;;;;;;6215515;23;20016;-74
2023/03/18 01:47:50;;;;;;;0.40;0.40;;;11.40;99.90;;;;;;6215422;23;20012;-74
2023/03/18 01:50:22;;;;;;;0.50;0.50;;;11.30;99.90;;;;;;6215281;23;20311;-74
2023/03/18 01:52:54;;;;;;;0.50;0.50;;;11.30;99.90;;;;;;6215321;23;20031;-74
2023/03/18 01:55:23;;;;;;;0.55;0.50;;;11.20;99.90;;;;;;6216849;23;20342;-75
2023/03/18 01:57:49;;;;;;;0.50;0.50;;;11.20;99.90;;;;;;6217089;23;20012;-74
2023/03/18 02:00:15;;;;;;;0.50;0.50;;;11.20;99.90;;;;;;6217041;23;20012;-74
2023/03/18 02:02:44;;;;;;;0.50;0.50;;;11.10;99.90;;;;;;6217029;23;20009;-74
2023/03/18 02:05:12;;;;;;;0.50;0.50;;;11.20;99.90;;;;;;6216990;23;20338;-74
2023/03/18 02:07:41;;;;;;;0.50;0.50;;;11.10;99.90;;;;;;6216966;23;20048;-74
2023/03/18 02:10:14;;;;;;;0.60;0.60;;;11.00;99.90;;;;;;6216193;23;20036;-74
2023/03/18 02:12:45;;;;;;;0.68;0.60;;;10.90;99.90;;;;;;6216424;23;20011;-74
2023/03/18 02:15:17;;;;;;;0.50;0.50;;;10.90;99.90;;;;;;6217004;23;20009;-74
2023/03/18 02:17:51;;;;;;;0.57;0.57;;;10.90;99.90;;;;;;6217058;23;20118;-74
2023/03/18 02:20:47;;;;;;;0.40;0.40;;;10.90;99.90;;;;;;6216650;23;20019;-74
2023/03/18 02:23:35;;;;;;;0.40;0.40;;;10.80;99.90;;;;;;6209237;23;20097;-74
2023/03/18 02:26:35;;;;;;;0.50;0.50;;;10.70;99.90;;;;;;6241042;23;20048;-74
2023/03/18 02:29:03;;;;;;;0.50;0.50;;;10.50;99.90;;;;;;6193946;23;20024;-75
2023/03/18 02:31:30;;;;;;;0.60;0.60;;;10.40;99.90;;;;;;6217380;23;20043;-74
2023/03/18 02:33:57;;;;;;;0.50;0.50;;;10.40;99.90;;;;;;6214814;23;20095;-74
2023/03/18 02:36:27;;;;;;;0.50;0.50;;;10.40;99.90;;;;;;6216268;23;20188;-74
2023/03/18 02:38:53;;;;;;;0.50;0.50;;;10.50;99.90;;;;;;6216504;23;20052;-74
2023/03/18 02:41:25;;;;;;;0.50;0.50;;;10.50;99.90;;;;;;6216662;23;20048;-75
2023/03/18 02:43:52;;;;;;;0.40;0.40;;;10.50;99.90;;;;;;6216387;23;20457;-74
2023/03/18 02:46:45;;;;;;;0.45;0.45;;;10.50;99.90;;;;;;6216354;23;20019;-75
2023/03/18 02:49:12;;;;;;;0.40;0.40;;;10.50;99.90;;;;;;6216696;23;20012;-74
2023/03/18 02:51:38;;;;;;;0.60;0.60;;;10.50;99.90;;;;;;6216715;23;20044;-74
2023/03/18 02:54:09;;;;;;;0.60;0.50;;;10.50;99.90;;;;;;6216243;23;20016;-74
2023/03/18 02:56:40;;;;;;;0.50;0.50;;;10.50;99.90;;;;;;6216691;23;20067;-74
2023/03/18 02:59:06;;;;;;;0.50;0.50;;;10.60;99.90;;;;;;6216641;23;20019;-75
2023/03/18 03:01:33;;;;;;;0.50;0.50;;;10.60;99.90;;;;;;6216608;23;20040;-74
2023/03/18 03:03:59;;;;;;;0.50;0.50;;;10.60;99.90;;;;;;6216571;23;20064;-74
2023/03/18 03:06:25;;;;;;;0.40;0.40;;;10.60;99.90;;;;;;6189563;23;20020;-74
2023/03/18 03:08:51;;;;;;;0.50;0.50;;;10.60;99.90;;;;;;6214706;23;20009;-74
2023/03/18 03:11:17;;;;;;;0.40;0.40;;;10.60;99.90;;;;;;6214702;23;20016;-74
2023/03/18 03:13:44;;;;;;;0.40;0.40;;;10.60;99.90;;;;;;6214842;23;20052;-74
2023/03/18 03:16:14;;;;;;;0.55;0.55;;;10.60;99.90;;;;;;6239735;23;20019;-74
2023/03/18 03:18:41;;;;;;;0.50;0.50;;;10.60;99.90;;;;;;6216411;23;20009;-74
2023/03/18 03:21:07;;;;;;;0.60;0.60;;;10.60;99.90;;;;;;6216375;23;20012;-74
2023/03/18 03:23:33;;;;;;;0.57;0.57;;;10.60;99.90;;;;;;6216224;23;20013;-74
2023/03/18 03:25:59;;;;;;;0.60;0.60;;;10.60;99.90;;;;;;6214419;23;20016;-74
2023/03/18 03:28:25;;;;;;;0.50;0.50;;;10.60;99.90;;;;;;6214480;23;20393;-74
2023/03/18 03:30:51;;;;;;;0.50;0.50;;;10.70;99.90;;;;;;6214351;23;20062;-74
2023/03/18 03:33:17;;;;;;;0.50;0.50;;;10.70;99.90;;;;;;6217150;23;20075;-74
2023/03/18 03:35:43;;;;;;;0.50;0.50;;;10.70;99.90;;;;;;6216119;23;20377;-74
2023/03/18 03:38:09;;;;;;;0.50;0.50;;;10.70;99.90;;;;;;6216267;23;20373;-74
2023/03/18 03:40:35;;;;;;;0.52;0.52;;;10.70;99.90;;;;;;6214413;23;20009;-74
2023/03/18 03:43:01;;;;;;;0.50;0.50;;;10.70;99.90;;;;;;6216261;23;20332;-74
2023/03/18 03:45:27;;;;;;;0.60;0.60;;;10.60;99.90;;;;;;6216256;23;20023;-74
2023/03/18 03:47:53;;;;;;;0.50;0.50;;;10.50;99.90;;;;;;6216104;23;20318;-74
2023/03/18 03:50:19;;;;;;;0.40;0.40;;;10.50;99.90;;;;;;6216812;23;20015;-74
2023/03/18 03:52:45;;;;;;;0.40;0.40;;;10.40;99.90;;;;;;6215630;23;20004;-75
2023/03/18 03:55:14;;;;;;;0.52;0.50;;;10.40;99.90;;;;;;6215810;23;20013;-74
2023/03/18 03:57:41;;;;;;;0.40;0.40;;;10.40;99.90;;;;;;6216485;23;20015;-74
2023/03/18 04:00:13;;;;;;;0.50;0.50;;;10.30;99.90;;;;;;6216110;23;20009;-74
2023/03/18 04:02:40;;;;;;;0.50;0.50;;;10.40;99.90;;;;;;6216183;23;20058;-74
2023/03/18 04:05:07;;;;;;;0.45;0.45;;;10.30;99.90;;;;;;6216124;23;20027;-74
2023/03/18 04:07:32;;;;;;;0.65;0.65;;;10.30;99.90;;;;;;6239823;23;20012;-75
2023/03/18 04:09:58;;;;;;;0.45;0.45;;;10.30;99.90;;;;;;6216178;23;20108;-74
2023/03/18 04:12:23;;;;;;;0.40;0.40;;;10.30;99.90;;;;;;6216047;23;20481;-75
2023/03/18 04:14:49;;;;;;;0.43;0.43;;;10.30;99.90;;;;;;6216033;23;20019;-74
2023/03/18 04:17:15;;;;;;;0.50;0.50;;;10.20;99.90;;;;;;6216710;23;20084;-74
2023/03/18 04:19:41;;;;;;;0.50;0.50;;;10.20;99.90;;;;;;6216108;23;20376;-75
2023/03/18 04:22:07;;;;;;;0.50;0.50;;;10.20;99.90;;;;;;6216092;23;20048;-74
2023/03/18 04:24:32;;;;;;;0.50;0.50;;;10.20;99.90;;;;;;6216259;23;20013;-74
2023/03/18 04:26:58;;;;;;;0.52;0.52;;;10.20;99.90;;;;;;6216114;23;20467;-74
2023/03/18 04:29:24;;;;;;;0.50;0.50;;;10.20;99.90;;;;;;6216110;23;20066;-74
2023/03/18 04:31:50;;;;;;;0.60;0.60;;;10.10;99.90;;;;;;6214142;23;20437;-74
2023/03/18 04:34:15;;;;;;;0.50;0.50;;;10.10;99.90;;;;;;6216014;23;20083;-74
2023/03/18 04:36:41;;;;;;;0.50;0.50;;;10.10;99.90;;;;;;6216033;23;20020;-74
2023/03/18 04:39:08;;;;;;;0.50;0.50;;;10.00;99.90;;;;;;6218108;23;20028;-74
2023/03/18 04:41:36;;;;;;;0.40;0.40;;;10.00;99.90;;;;;;6217879;23;20068;-74
2023/03/18 04:44:02;;;;;;;0.50;0.50;;;10.00;99.90;;;;;;6217818;23;20004;-74
2023/03/18 04:46:28;;;;;;;0.60;0.60;;;10.00;99.90;;;;;;6217873;23;20372;-75
2023/03/18 04:48:55;;;;;;;0.50;0.50;;;10.10;99.90;;;;;;6218138;23;20012;-74
2023/03/18 04:51:21;;;;;;;0.50;0.50;;;10.10;99.90;;;;;;6217789;23;20059;-74
2023/03/18 04:53:47;;;;;;;0.50;0.50;;;10.10;99.90;;;;;;6217781;23;20020;-74
2023/03/18 04:56:13;;;;;;;0.50;0.50;;;10.10;99.90;;;;;;6217324;23;20476;-74
2023/03/18 04:58:39;;;;;;;0.55;0.52;;;10.00;99.90;;;;;;6241449;23;20174;-74
2023/03/18 05:01:05;;;;;;;0.60;0.60;;;10.10;99.90;;;;;;6217692;23;20366;-74
2023/03/18 05:03:30;;;;;;;0.60;0.60;;;10.10;99.90;;;;;;6217428;23;20019;-75
2023/03/18 05:05:56;;;;;;;0.40;0.40;;;10.00;99.90;;;;;;6241424;23;20044;-74
2023/03/18 05:08:21;;;;;;;0.70;0.70;;;9.90;99.90;;;;;;6218249;23;20314;-74
2023/03/18 05:10:49;;;;;;;0.70;0.70;;;10.00;99.90;;;;;;6217717;23;20151;-73
2023/03/18 05:13:15;;;;;;;0.50;0.50;;;9.90;99.90;;;;;;6217551;23;20008;-73
2023/03/18 05:15:41;;;;;;;0.63;0.63;;;9.80;99.90;;;;;;6217527;23;20093;-73
2023/03/18 05:18:07;;;;;;;0.60;0.60;;;9.80;99.90;;;;;;6218509;23;20132;-73
2023/03/18 05:20:34;;;;;;;0.63;0.63;;;9.80;99.90;;;;;;6218114;23;20542;-73
2023/03/18 05:23:00;;;;;;;0.40;0.40;;;9.80;99.90;;;;;;6217534;23;20012;-74
2023/03/18 05:25:26;;;;;;;0.70;0.70;;;9.80;99.90;;;;;;6217530;23;20059;-74
2023/03/18 05:27:53;;;;;;;0.57;0.57;;;9.80;99.90;;;;;;6217470;23;20031;-73
2023/03/18 05:30:19;;;;;;;0.60;0.60;;;9.80;99.90;;;;;;6216995;23;20018;-73
2023/03/18 05:32:45;;;;;;;0.60;0.60;;;9.80;99.90;;;;;;6240772;23;20016;-73
2023/03/18 05:35:11;;;;;;;0.70;0.70;;;9.70;99.90;;;;;;6217114;23;20009;-73
2023/03/18 05:37:37;;;;;;;0.60;0.60;;;9.70;99.90;;;;;;6215334;23;20338;-73
2023/03/18 05:40:08;;;;;;;0.60;0.60;;;9.80;99.90;;;;;;6216990;23;20020;-73
2023/03/18 05:42:35;;;;;;;0.50;0.50;;;9.70;99.90;;;;;;6217243;23;20009;-73
2023/03/18 05:45:01;;;;;;;0.70;0.70;;;9.70;99.90;;;;;;6217236;23;20054;-73
2023/03/18 05:47:27;;;;;;;0.60;0.60;;;9.70;99.90;;;;;;6217175;23;20016;-73
2023/03/18 05:49:53;;;;;;;0.60;0.60;;;9.70;99.90;;;;;;6217211;23;20341;-73
2023/03/18 05:52:19;;;;;;;0.50;0.50;;;9.80;99.90;;;;;;6217077;23;20333;-73
2023/03/18 05:54:44;;;;;;;0.60;0.60;;;9.80;99.90;;;;;;6217076;23;20016;-73
2023/03/18 05:57:10;;;;;;;0.50;0.50;;;9.90;99.90;;;;;;6240987;23;20062;-73
2023/03/18 05:59:37;;;;;;;0.45;0.45;;;9.90;99.90;;;;;;6217684;23;20377;-73
2023/03/18 06:02:03;;;;;;;0.60;0.60;;;9.90;99.90;;;;;;6190100;23;20023;-73
2023/03/18 06:04:29;;;;;;;0.50;0.50;;;10.00;99.90;;;;;;6217080;23;20012;-73
2023/03/18 06:06:57;;;;;;;0.50;0.50;;;10.00;99.90;;;;;;6217125;23;20362;-73
2023/03/18 06:09:24;;;;;;;0.50;0.50;;;9.90;99.90;;;;;;6216753;23;20063;-73
2023/03/18 06:11:50;;;;;;;0.47;0.47;;;9.90;99.90;;;;;;6217057;23;20307;-73
2023/03/18 06:14:17;;;;;;;0.43;0.43;;;9.90;99.90;;;;;;6217028;23;20013;-73
2023/03/18 06:16:43;;;;;;;0.57;0.57;;;9.90;99.90;;;;;;6216919;23;20013;-73
2023/03/18 06:19:12;;;;;;;0.50;0.50;;;9.80;99.90;;;;;;6214973;23;20070;-73
2023/03/18 06:21:38;;;;;;;0.70;0.70;;;9.80;99.90;;;;;;6214970;23;20008;-73
2023/03/18 06:24:05;;;;;;;0.52;0.52;;;9.80;99.90;;;;;;6215066;23;20008;-73
2023/03/18 06:26:30;;;;;;;0.50;0.50;;;9.70;99.90;;;;;;6216835;23;20008;-73
2023/03/18 06:28:57;;;;;;;0.50;0.50;;;9.70;99.90;;;;;;6240215;23;20058;-73
2023/03/18 06:31:23;;;;;;;0.50;0.50;;;9.70;99.90;;;;;;6216843;23;20008;-73
2023/03/18 06:33:49;;;;;;;0.50;0.50;;;9.70;99.90;;;;;;6216774;23;20013;-73
2023/03/18 06:36:16;;;;;;;0.40;0.40;;;9.70;99.90;;;;;;6214760;23;20009;-73
2023/03/18 06:38:43;;;;;;;0.52;0.52;;;9.60;99.90;;;;;;6214837;23;20013;-74
2023/03/18 06:41:10;;;;;;;0.50;0.50;;;9.70;99.90;;;;;;6214947;23;20004;-73
2023/03/18 06:43:36;;;;;;;0.52;0.50;;;9.70;99.90;;;;;;6216660;23;20016;-73
2023/03/18 06:46:02;;;;;;;0.40;0.40;;;9.80;99.90;;;;;;6214766;23;20067;-74
2023/03/18 06:48:27;;;;;;;0.40;0.40;;;9.80;99.90;;;;;;6216214;23;20476;-73
2023/03/18 06:50:54;;;;;;;0.40;0.40;;;9.90;99.90;;;;;;6216590;23;20021;-73
2023/03/18 06:53:20;;;;;;;0.60;0.55;;;9.90;99.90;;;;;;6189962;23;20020;-73
2023/03/18 06:55:46;;;;;;;0.50;0.50;;;9.90;99.90;;;;;;6189639;23;20017;-73
2023/03/18 06:58:11;;;;;;;0.50;0.50;;;9.90;99.90;;;;;;6189465;23;20066;-73
2023/03/18 07:00:40;;;;;;;0.60;0.60;;;9.90;99.90;;;;;;6190321;23;20091;-73
2023/03/18 07:03:06;;;;;;;0.50;0.50;;;9.80;99.90;;;;;;6216085;23;20465;-73
2023/03/18 07:05:31;;;;;;;0.60;0.60;;;9.80;99.90;;;;;;6189563;23;20012;-73
2023/03/18 07:07:57;;;;;;;0.80;0.80;;;9.80;99.90;;;;;;6189452;23;20025;-74
2023/03/18 07:10:28;;;;;;;0.50;0.50;;;9.80;99.90;;;;;;6216583;23;20020;-73
2023/03/18 07:12:54;;;;;;;0.60;0.60;;;9.80;99.90;;;;;;6216451;23;20008;-74
2023/03/18 07:15:21;;;;;;;0.50;0.50;;;9.90;99.90;;;;;;6215922;23;20059;-74
2023/03/18 07:17:48;;;;;;;0.70;0.70;;;9.90;99.90;;;;;;6216127;23;20433;-73
2023/03/18 07:20:14;;;;;;;0.60;0.60;;;10.00;99.90;;;;;;6216274;23;20027;-74
2023/03/18 07:22:41;;;;;;;0.50;0.50;;;10.10;99.90;;;;;;6189439;23;20058;-73
2023/03/18 07:25:08;;;;;;;0.60;0.60;;;10.20;99.90;;;;;;6216739;23;20016;-74
2023/03/18 07:27:34;;;;;;;0.57;0.57;;;10.30;99.90;;;;;;6216200;23;20100;-74
2023/03/18 07:30:00;;;;;;;0.40;0.40;;;10.40;99.90;;;;;;6216292;23;20465;-73
2023/03/18 07:32:26;;;;;;;0.52;0.52;;;10.50;99.90;;;;;;6216912;23;20357;-74
2023/03/18 07:34:52;;;;;;;0.50;0.50;;;10.50;99.90;;;;;;6216166;23;20008;-74
2023/03/18 07:37:17;;;;;;;0.60;0.60;;;10.60;99.90;;;;;;6216179;23;20012;-74
2023/03/18 07:39:43;;;;;;;0.60;0.60;;;10.60;99.90;;;;;;6164626;23;20016;-74
2023/03/18 07:42:09;;;;;;;1.05;0.60;;;10.70;99.90;;;;;;6216191;23;20036;-74
2023/03/18 07:44:36;;;;;;;0.60;0.60;;;10.70;99.90;;;;;;6216294;23;20514;-74
2023/03/18 07:47:02;;;;;;;0.50;0.50;;;10.70;99.90;;;;;;6215926;23;20009;-74
2023/03/18 07:49:28;;;;;;;0.40;0.40;;;10.70;99.90;;;;;;6189728;23;20062;-74
2023/03/18 07:51:55;;;;;;;0.85;0.70;;;10.80;99.90;;;;;;6189186;23;20023;-74
2023/03/18 07:54:22;;;;;;;0.60;0.60;;;10.70;99.90;;;;;;6215809;23;20036;-74
2023/03/18 07:56:48;;;;;;;0.60;0.60;;;10.80;99.90;;;;;;6216274;23;20082;-74
2023/03/18 07:59:14;;;;;;;0.55;0.55;;;10.80;99.90;;;;;;6239707;23;20009;-70
2023/03/18 08:01:40;;;;;;;0.50;0.50;;;10.80;99.90;;;;;;6216175;23;20019;-70
2023/03/18 08:04:06;;;;;;;0.52;0.52;;;10.80;99.90;;;;;;6214284;23;20048;-71
2023/03/18 08:06:33;;;;;;;0.60;0.60;;;10.80;99.90;;;;;;6215780;23;20433;-71
2023/03/18 08:08:59;;;;;;;0.57;0.57;;;10.80;99.90;;;;;;6216175;23;20005;-70
2023/03/18 08:11:25;;;;;;;0.60;0.60;;;10.80;99.90;;;;;;6218418;23;20043;-70
2023/03/18 08:13:50;;;;;;;0.60;0.60;;;10.80;99.90;;;;;;6218146;23;20334;-70
2023/03/18 08:16:17;;;;;;;0.50;0.50;;;10.80;99.90;;;;;;6218532;23;20326;-69
2023/03/18 08:18:43;;;;;;;0.57;0.57;;;10.80;99.90;;;;;;6217058;23;20027;-69
2023/03/18 08:21:09;;;;;;;0.60;0.60;;;10.80;99.90;;;;;;6218069;23;20009;-70
2023/03/18 08:23:35;;;;;;;0.57;0.57;;;10.80;99.90;;;;;;6218028;23;20036;-69
2023/03/18 08:26:01;;;;;;;0.50;0.50;;;10.90;99.90;;;;;;6218125;23;20016;-70
2023/03/18 08:28:27;;;;;;;0.50;0.50;;;10.80;99.90;;;;;;6218130;23;20087;-70
2023/03/18 08:30:57;;;;;;;0.50;0.50;;;10.90;99.90;;;;;;6218123;23;20055;-70
2023/03/18 08:33:26;;;;;;;0.50;0.50;;;10.90;99.90;;;;;;6218045;23;20079;-69
2023/03/18 08:35:53;;;;;;;0.60;0.60;;;10.90;99.90;;;;;;6217954;23;20024;-70
2023/03/18 08:38:19;;;;;;;0.65;0.65;;;11.00;99.90;;;;;;6217913;23;20015;-70
2023/03/18 08:40:48;;;;;;;0.65;0.60;;;11.00;99.90;;;;;;6218550;23;20036;-71
2023/03/18 08:43:13;;;;;;;0.60;0.60;;;10.90;99.90;;;;;;6218002;23;20361;-71
2023/03/18 08:45:39;;;;;;;0.73;0.68;;;11.00;99.90;;;;;;6217783;23;20017;-70
2023/03/18 08:48:06;;;;;;;0.60;0.60;;;11.10;99.90;;;;;;6217792;23;20016;-70
2023/03/18 08:50:32;;;;;;;0.60;0.60;;;11.10;99.90;;;;;;6217707;23;20059;-70
2023/03/18 08:52:59;;;;;;;0.80;0.80;;;11.10;99.90;;;;;;6217343;23;20012;-69
2023/03/18 08:55:31;;;;;;;0.65;0.65;;;11.20;99.90;;;;;;6217269;23;20055;-70
2023/03/18 08:57:57;;;;;;;0.68;0.68;;;11.30;99.90;;;;;;6217212;23;20009;-70
2023/03/18 09:00:24;;;;;;;0.60;0.60;;;11.30;99.90;;;;;;6217664;23;20437;-70
2023/03/18 09:02:51;;;;;;;0.70;0.70;;;11.40;99.90;;;;;;6217619;23;20075;-70
2023/03/18 09:05:17;;;;;;;0.70;0.70;;;11.30;99.90;;;;;;6217294;23;20426;-70
2023/03/18 09:07:44;;;;;;;0.70;0.70;;;11.50;99.90;;;;;;6217643;23;20023;-70
2023/03/18 09:10:11;;;;;;;0.60;0.60;;;11.50;99.90;;;;;;6217445;23;20021;-70
2023/03/18 09:12:38;;;;;;;0.60;0.60;;;11.60;99.90;;;;;;6217637;23;20391;-73
2023/03/18 09:15:05;;;;;;;0.63;0.63;;;11.60;99.90;;;;;;6217788;23;20022;-71
2023/03/18 09:17:30;;;;;;;0.75;0.75;;;11.70;99.90;;;;;;6217124;23;20016;-72
2023/03/18 09:19:56;;;;;;;0.65;0.65;;;11.70;99.90;;;;;;6215585;23;20035;-76
2023/03/18 09:22:22;;;;;;;0.60;0.60;;;11.80;99.90;;;;;;6216327;23;20062;-74
2023/03/18 09:24:48;;;;;;;0.60;0.60;;;11.80;99.90;;;;;;6216024;23;20145;-71
2023/03/18 09:27:14;;;;;;;0.50;0.50;;;11.80;99.90;;;;;;6217614;23;20013;-79
2023/03/18 09:29:40;;;;;;;0.60;0.60;;;11.80;99.90;;;;;;6217441;23;20020;-73
2023/03/18 09:32:07;;;;;;;0.60;0.60;;;11.90;99.90;;;;;;6217375;23;20059;-76
2023/03/18 09:34:32;;;;;;;0.60;0.60;;;12.00;99.90;;;;;;6217096;23;20012;-76
2023/03/18 09:36:58;;;;;;;0.65;0.65;;;12.10;99.90;;;;;;6217378;23;20043;-74
2023/03/18 09:39:24;;;;;;;0.52;0.52;;;12.10;99.90;;;;;;6215432;23;20016;-73
2023/03/18 09:42:17;;;;;;;0.70;0.70;;;12.10;99.90;;;;;;6217417;23;20005;-75
2023/03/18 09:44:44;;;;;;;0.60;0.60;;;12.20;99.90;;;;;;6217287;23;20020;-83
2023/03/18 09:47:34;;;;;;;0.70;0.70;;;12.30;99.90;;;;;;6215445;23;20035;-80
2023/03/18 09:50:12;;;;;;;0.60;0.60;;;12.30;99.90;;;;;;6217245;23;20364;-75
2023/03/18 09:52:49;;;;;;;0.60;0.60;;;12.50;99.90;;;;;;6217290;23;20013;-75
2023/03/18 09:55:39;;;;;;;0.70;0.70;;;12.60;99.90;;;;;;6215271;23;20036;-75
2023/03/18 09:58:08;;;;;;;;;;;12.70;99.90;;;;;;6217720;23;20009;-75
2023/03/18 10:00:37;;;;;;;0.70;0.70;;;12.70;99.90;;;;;;6217278;23;19923;-75
2023/03/18 10:03:09;;;;;;;0.63;0.63;;;12.90;99.90;;;;;;6217264;23;20071;-75
2023/03/18 10:05:50;;;;;;;0.70;0.70;;;12.80;99.90;;;;;;6215332;23;20025;-75
2023/03/18 10:08:42;;;;;;;0.50;0.50;;;12.90;99.90;;;;;;6217584;23;20013;-75
2023/03/18 10:11:19;;;;;;;0.50;0.50;;;13.00;99.90;;;;;;6217170;23;20066;-75
2023/03/18 10:14:07;;;;;;;0.60;0.60;;;13.20;99.90;;;;;;6215227;23;20106;-75
2023/03/18 10:16:52;;;;;;;0.60;0.60;;;13.20;99.90;;;;;;6217048;23;20126;-74
2023/03/18 10:19:18;;;;;;;0.57;0.57;;;13.20;99.90;;;;;;6216924;23;20009;-75
2023/03/18 10:21:53;;;;;;;0.60;0.60;;;13.20;99.90;;;;;;6214985;23;20008;-74
2023/03/18 10:24:34;;;;;;;0.70;0.70;;;13.20;99.90;;;;;;6216571;23;20043;-80
2023/03/18 10:27:33;;;;;;;0.60;0.60;;;13.30;99.90;;;;;;6217004;23;20009;-77
2023/03/18 10:30:16;;;;;;;0.50;0.50;;;13.20;99.90;;;;;;6215003;23;20016;-73
2023/03/18 10:33:02;;;;;;;0.60;0.60;;;13.10;99.90;;;;;;6216411;23;20278;-85
2023/03/18 10:35:41;;;;;;;0.68;0.68;;;13.10;99.90;;;;;;6214911;23;20008;-74
2023/03/18 10:38:20;;;;;;;0.60;0.60;;;13.10;99.90;;;;;;6216820;23;20017;-73
2023/03/18 10:40:48;;;;;;;0.60;0.60;;;13.00;99.90;;;;;;6216966;23;20377;-74
2023/03/18 10:43:20;;;;;;;0.60;0.60;;;13.10;99.90;;;;;;6216673;23;20011;-74
2023/03/18 10:45:50;;;;;;;0.70;0.70;;;13.30;99.90;;;;;;6216345;23;20063;-73
2023/03/18 10:48:35;;;;;;;0.60;0.60;;;13.20;99.90;;;;;;6214906;23;20020;-73
2023/03/18 10:51:21;;;;;;;0.57;0.57;;;13.30;99.90;;;;;;6214812;23;20013;-75
2023/03/18 10:54:01;;;;;;;0.40;0.40;;;13.30;99.90;;;;;;6216691;23;20013;-74
2023/03/18 10:56:27;;;;;;;;;;;13.30;99.90;;;;;;6216799;23;20020;-74
2023/03/18 10:58:53;;;;;;;0.60;0.60;;;13.30;99.90;;;;;;6216167;23;19915;-79
2023/03/18 11:01:23;;;;;;;0.45;0.45;;;13.20;99.90;;;;;;6214587;23;20330;-73
2023/03/18 11:03:57;;;;;;;;;;;13.20;99.90;;;;;;6218087;23;20298;-73
2023/03/18 11:06:29;;;;;;;0.55;0.55;;;13.30;99.90;;;;;;6216545;23;19916;-81
2023/03/18 11:09:23;;;;;;;0.50;0.50;;;13.50;99.90;;;;;;6216093;23;20023;-69
2023/03/18 11:11:54;;;;;;;0.47;0.47;;;13.50;99.90;;;;;;6213176;23;20495;-77
2023/03/18 11:14:21;;;;;;;0.40;0.40;;;13.50;99.90;;;;;;6214506;23;20056;-84
2023/03/18 11:17:05;;;;;;;0.50;0.50;;;13.50;99.90;;;;;;6214636;23;20013;-73
2023/03/18 11:19:40;;;;;;;0.50;0.50;;;13.50;99.90;;;;;;6216339;23;20077;-73
2023/03/18 11:22:08;;;;;;;0.45;0.45;;;13.40;99.90;;;;;;6216420;23;20008;-75
2023/03/18 11:24:41;;;;;;;0.50;0.50;;;13.30;99.90;;;;;;6216172;23;20013;-73
2023/03/18 11:27:13;;;;;;;0.40;0.40;;;13.30;99.90;;;;;;6217125;23;20418;-75
2023/03/18 11:29:42;;;;;;;0.50;0.50;;;13.30;99.90;;;;;;6215985;23;20074;-74
2023/03/18 11:32:26;;;;;;;0.40;0.40;;;13.30;99.90;;;;;;6239780;23;20495;-75
2023/03/18 11:35:46;;;;;;;0.32;0.32;;;13.30;99.90;;;;;;6216294;23;20013;-75
2023/03/18 11:38:26;;;;;;;0.40;0.40;;;13.40;99.90;;;;;;6214341;23;20009;-71
2023/03/18 11:40:51;;;;;;;;;;;13.60;99.90;;;;;;6216967;23;20307;-77
2023/03/18 11:43:24;;;;;;;0.45;0.45;;;13.70;99.90;;;;;;6214259;23;20010;-73
2023/03/18 11:45:55;;;;;;;0.40;0.40;;;13.80;99.90;;;;;;6216332;23;20023;-73
2023/03/18 11:48:37;;;;;;;0.50;0.50;;;13.80;99.90;;;;;;6215968;23;20048;-74
2023/03/18 11:51:21;;;;;;;0.35;0.35;;;13.80;99.90;;;;;;6216202;23;20013;-73
2023/03/18 11:54:08;;;;;;;0.40;0.40;;;13.70;99.90;;;;;;6215903;23;20012;-74
2023/03/18 11:56:48;;;;;;;0.40;0.40;;;13.70;99.90;;;;;;6214427;23;20024;-74
2023/03/18 11:59:20;;;;;;;0.40;0.40;;;13.80;99.90;;;;;;6216889;23;20013;-77
2023/03/18 12:01:58;;;;;;;0.30;0.30;;;13.90;99.90;;;;;;6214321;23;20008;-73
2023/03/18 12:04:32;;;;;;;0.32;0.32;;;14.00;99.90;;;;;;6214373;23;20051;-73
2023/03/18 12:07:11;;;;;;;0.30;0.30;;;14.30;99.90;;;;;;6216215;23;20051;-78
2023/03/18 12:09:52;;;;;;;0.32;0.32;;;14.40;99.90;;;;;;6215853;23;20474;-73
2023/03/18 12:12:30;;;;;;;0.40;0.40;;;14.60;99.90;;;;;;6217321;23;20355;-72
2023/03/18 12:15:23;;;;;;;0.32;0.32;;;14.80;99.90;;;;;;6216087;23;20019;-72
2023/03/18 12:18:22;;;;;;;0.40;0.40;;;15.00;99.90;;;;;;6216145;23;20024;-70
2023/03/18 12:20:48;;;;;;;0.30;0.30;;;15.20;99.90;;;;;;6215772;23;20016;-72
2023/03/18 12:23:31;;;;;;;0.32;0.32;;;15.30;99.90;;;;;;6216049;23;20020;-73
2023/03/18 12:26:05;;;;;;;0.30;0.30;;;15.60;99.90;;;;;;6214732;23;20088;-73
2023/03/18 12:28:47;;;;;;;0.30;0.30;;;15.80;99.90;;;;;;6214245;23;20405;-73
2023/03/18 12:31:38;;;;;;;0.35;0.35;;;15.90;99.90;;;;;;6214317;23;20395;-72
2023/03/18 12:34:19;;;;;;;0.40;0.40;;;16.00;99.90;;;;;;6214160;23;20047;-72
2023/03/18 12:37:07;;;;;;;0.38;0.38;;;16.10;99.90;;;;;;6214480;23;20017;-73
2023/03/18 12:39:51;;;;;;;0.30;0.30;;;16.30;99.90;;;;;;6214093;23;20334;-73
2023/03/18 12:42:27;;;;;;;0.30;0.30;;;16.20;99.90;;;;;;6214292;23;20023;-73
2023/03/18 12:44:53;;;;;;;0.20;0.20;;;16.10;99.90;;;;;;6214142;23;20017;-72
2023/03/18 12:47:24;;;;;;;0.30;0.30;;;16.20;99.90;;;;;;6214028;23;20024;-72
2023/03/18 12:49:59;;;;;;;0.30;0.30;;;15.90;99.90;;;;;;6189112;23;20020;-73
2023/03/18 12:52:30;;;;;;;0.30;0.30;;;15.90;99.90;;;;;;6215991;23;20012;-72
2023/03/18 12:55:10;;;;;;;0.35;0.35;;;16.20;99.90;;;;;;6213760;23;20338;-78
2023/03/18 12:57:36;;;;;;;;;;;16.40;99.90;;;;;;6218450;23;20418;-75
2023/03/18 13:00:14;;;;;;;0.30;0.30;;;16.50;99.90;;;;;;6216169;23;19938;-86
2023/03/18 13:03:04;;;;;;;0.20;0.20;;;16.60;99.90;;;;;;6190809;23;20013;-79
2023/03/18 13:05:33;;;;;;;0.40;0.40;;;16.70;99.90;;;;;;6215900;23;20286;-70